sensor_id;sensor_type;location;lat;lon;timestamp;P1;durP1;ratioP1;P2;durP2;ratioP2
52322;SDS011;38263;52.920;6.238;2023-12-29T00:00:02;11.77;;;2.70;;
52322;SDS011;38263;52.920;6.238;2023-12-29T00:02:28;11.13;;;2.88;;
52322;SDS011;38263;52.920;6.238;2023-12-29T00:04:54;11.45;;;2.92;;
52322;SDS011;38263;52.920;6.238;2023-12-29T00:07:20;12.30;;;3.10;;
52322;SDS011;38263;52.920;6.238;2023-12-29T00:09:46;9.20;;;3.08;;
52322;SDS011;38263;52.920;6.238;2023-12-29T00:12:12;12.23;;;2.85;;
52322;SDS011;38263;52.920;6.238;2023-12-29T00:14:41;10.32;;;2.83;;
52322;SDS011;38263;52.920;6.238;2023-12-29T00:17:08;8.35;;;2.78;;
52322;SDS011;38263;52.920;6.238;2023-12-29T00:19:34;13.38;;;3.30;;
52322;SDS011;38263;52.920;6.238;2023-12-29T00:22:00;15.52;;;3.47;;
52322;SDS011;38263;52.920;6.238;2023-12-29T00:24:28;14.30;;;2.65;;
52322;SDS011;38263;52.920;6.238;2023-12-29T00:26:56;8.95;;;2.35;;
52322;SDS011;38263;52.920;6.238;2023-12-29T00:29:23;13.18;;;2.53;;
52322;SDS011;38263;52.920;6.238;2023-12-29T00:31:49;11.60;;;2.38;;
52322;SDS011;38263;52.920;6.238;2023-12-29T00:34:15;9.88;;;2.85;;
52322;SDS011;38263;52.920;6.238;2023-12-29T00:36:41;11.25;;;2.45;;
52322;SDS011;38263;52.920;6.238;2023-12-29T00:39:07;15.88;;;2.72;;
52322;SDS011;38263;52.920;6.238;2023-12-29T00:41:33;12.30;;;2.60;;
52322;SDS011;38263;52.920;6.238;2023-12-29T00:43:59;9.43;;;3.13;;
52322;SDS011;38263;52.920;6.238;2023-12-29T00:46:25;11.48;;;2.90;;
52322;SDS011;38263;52.920;6.238;2023-12-29T00:48:51;15.90;;;3.13;;
52322;SDS011;38263;52.920;6.238;2023-12-29T00:51:17;7.82;;;2.70;;
52322;SDS011;38263;52.920;6.238;2023-12-29T00:53:43;14.65;;;3.35;;
52322;SDS011;38263;52.920;6.238;2023-12-29T00:56:09;15.35;;;3.65;;
52322;SDS011;38263;52.920;6.238;2023-12-29T00:58:36;10.98;;;3.03;;
52322;SDS011;38263;52.920;6.238;2023-12-29T01:01:02;19.10;;;3.03;;
52322;SDS011;38263;52.920;6.238;2023-12-29T01:03:28;12.18;;;5.13;;
52322;SDS011;38263;52.920;6.238;2023-12-29T01:05:54;17.30;;;3.33;;
52322;SDS011;38263;52.920;6.238;2023-12-29T01:08:20;14.30;;;3.03;;
52322;SDS011;38263;52.920;6.238;2023-12-29T01:10:46;13.27;;;3.13;;
52322;SDS011;38263;52.920;6.238;2023-12-29T01:13:12;12.18;;;3.53;;
52322;SDS011;38263;52.920;6.238;2023-12-29T01:15:38;9.68;;;2.92;;
52322;SDS011;38263;52.920;6.238;2023-12-29T01:18:05;15.10;;;3.25;;
52322;SDS011;38263;52.920;6.238;2023-12-29T01:20:31;16.17;;;4.07;;
52322;SDS011;38263;52.920;6.238;2023-12-29T01:22:57;14.73;;;3.78;;
52322;SDS011;38263;52.920;6.238;2023-12-29T01:25:23;13.77;;;3.30;;
52322;SDS011;38263;52.920;6.238;2023-12-29T01:27:49;21.02;;;3.40;;
52322;SDS011;38263;52.920;6.238;2023-12-29T01:30:15;13.40;;;3.22;;
52322;SDS011;38263;52.920;6.238;2023-12-29T01:32:41;12.60;;;3.22;;
52322;SDS011;38263;52.920;6.238;2023-12-29T01:35:07;13.75;;;3.05;;
52322;SDS011;38263;52.920;6.238;2023-12-29T01:37:33;17.02;;;3.30;;
52322;SDS011;38263;52.920;6.238;2023-12-29T01:39:59;15.23;;;3.72;;
52322;SDS011;38263;52.920;6.238;2023-12-29T01:42:25;16.30;;;3.97;;
52322;SDS011;38263;52.920;6.238;2023-12-29T01:44:52;14.07;;;3.53;;
52322;SDS011;38263;52.920;6.238;2023-12-29T01:47:19;15.30;;;3.80;;
52322;SDS011;38263;52.920;6.238;2023-12-29T01:49:46;16.13;;;3.85;;
52322;SDS011;38263;52.920;6.238;2023-12-29T01:52:13;16.20;;;3.03;;
52322;SDS011;38263;52.920;6.238;2023-12-29T01:54:40;19.10;;;2.55;;
52322;SDS011;38263;52.920;6.238;2023-12-29T01:57:08;9.20;;;3.20;;
52322;SDS011;38263;52.920;6.238;2023-12-29T01:59:34;16.88;;;3.47;;
52322;SDS011;38263;52.920;6.238;2023-12-29T02:02:01;12.27;;;2.85;;
52322;SDS011;38263;52.920;6.238;2023-12-29T02:04:28;18.52;;;4.20;;
52322;SDS011;38263;52.920;6.238;2023-12-29T02:06:55;13.00;;;3.40;;
52322;SDS011;38263;52.920;6.238;2023-12-29T02:09:21;11.13;;;3.38;;
52322;SDS011;38263;52.920;6.238;2023-12-29T02:11:47;16.80;;;3.90;;
52322;SDS011;38263;52.920;6.238;2023-12-29T02:14:14;16.25;;;4.47;;
52322;SDS011;38263;52.920;6.238;2023-12-29T02:19:13;16.52;;;4.22;;
52322;SDS011;38263;52.920;6.238;2023-12-29T02:21:45;15.60;;;4.60;;
52322;SDS011;38263;52.920;6.238;2023-12-29T02:24:11;14.18;;;3.78;;
52322;SDS011;38263;52.920;6.238;2023-12-29T02:26:40;14.55;;;3.83;;
52322;SDS011;38263;52.920;6.238;2023-12-29T02:29:08;14.80;;;3.65;;
52322;SDS011;38263;52.920;6.238;2023-12-29T02:31:36;14.60;;;3.53;;
52322;SDS011;38263;52.920;6.238;2023-12-29T02:34:06;15.75;;;3.45;;
52322;SDS011;38263;52.920;6.238;2023-12-29T02:36:33;11.73;;;3.47;;
52322;SDS011;38263;52.920;6.238;2023-12-29T02:39:07;13.57;;;3.28;;
52322;SDS011;38263;52.920;6.238;2023-12-29T02:41:33;16.15;;;2.80;;
52322;SDS011;38263;52.920;6.238;2023-12-29T02:43:59;12.95;;;2.70;;
52322;SDS011;38263;52.920;6.238;2023-12-29T02:46:25;7.50;;;3.00;;
52322;SDS011;38263;52.920;6.238;2023-12-29T02:48:51;14.48;;;3.33;;
52322;SDS011;38263;52.920;6.238;2023-12-29T02:51:17;13.90;;;3.35;;
52322;SDS011;38263;52.920;6.238;2023-12-29T02:53:43;14.25;;;3.60;;
52322;SDS011;38263;52.920;6.238;2023-12-29T02:56:09;10.13;;;2.67;;
52322;SDS011;38263;52.920;6.238;2023-12-29T02:58:35;16.23;;;4.57;;
52322;SDS011;38263;52.920;6.238;2023-12-29T03:01:01;19.58;;;3.67;;
52322;SDS011;38263;52.920;6.238;2023-12-29T03:03:27;19.88;;;3.50;;
52322;SDS011;38263;52.920;6.238;2023-12-29T03:05:53;12.45;;;3.20;;
52322;SDS011;38263;52.920;6.238;2023-12-29T03:08:19;22.55;;;4.50;;
52322;SDS011;38263;52.920;6.238;2023-12-29T03:10:45;19.65;;;4.00;;
52322;SDS011;38263;52.920;6.238;2023-12-29T03:13:10;18.52;;;3.83;;
52322;SDS011;38263;52.920;6.238;2023-12-29T03:15:36;18.92;;;4.53;;
52322;SDS011;38263;52.920;6.238;2023-12-29T03:18:02;16.60;;;3.70;;
52322;SDS011;38263;52.920;6.238;2023-12-29T03:20:29;17.95;;;5.32;;
52322;SDS011;38263;52.920;6.238;2023-12-29T03:22:55;15.32;;;3.80;;
52322;SDS011;38263;52.920;6.238;2023-12-29T03:25:22;18.40;;;4.15;;
52322;SDS011;38263;52.920;6.238;2023-12-29T03:27:48;19.85;;;4.60;;
52322;SDS011;38263;52.920;6.238;2023-12-29T03:30:14;22.67;;;4.65;;
52322;SDS011;38263;52.920;6.238;2023-12-29T03:32:40;18.77;;;4.28;;
52322;SDS011;38263;52.920;6.238;2023-12-29T03:35:06;14.75;;;3.80;;
52322;SDS011;38263;52.920;6.238;2023-12-29T03:37:32;16.48;;;3.85;;
52322;SDS011;38263;52.920;6.238;2023-12-29T03:39:58;14.40;;;3.60;;
52322;SDS011;38263;52.920;6.238;2023-12-29T03:42:24;21.00;;;4.53;;
52322;SDS011;38263;52.920;6.238;2023-12-29T03:44:50;24.08;;;4.78;;
52322;SDS011;38263;52.920;6.238;2023-12-29T03:47:16;18.27;;;3.85;;
52322;SDS011;38263;52.920;6.238;2023-12-29T03:49:42;17.55;;;3.30;;
52322;SDS011;38263;52.920;6.238;2023-12-29T03:52:08;16.27;;;3.67;;
52322;SDS011;38263;52.920;6.238;2023-12-29T03:54:34;16.35;;;4.10;;
52322;SDS011;38263;52.920;6.238;2023-12-29T03:57:00;22.55;;;5.78;;
52322;SDS011;38263;52.920;6.238;2023-12-29T03:59:27;24.13;;;4.38;;
52322;SDS011;38263;52.920;6.238;2023-12-29T04:01:53;28.10;;;5.25;;
52322;SDS011;38263;52.920;6.238;2023-12-29T04:04:19;15.40;;;3.83;;
52322;SDS011;38263;52.920;6.238;2023-12-29T04:06:45;22.90;;;4.53;;
52322;SDS011;38263;52.920;6.238;2023-12-29T04:09:11;25.67;;;4.38;;
52322;SDS011;38263;52.920;6.238;2023-12-29T04:11:37;21.27;;;5.05;;
52322;SDS011;38263;52.920;6.238;2023-12-29T04:14:03;18.00;;;3.67;;
52322;SDS011;38263;52.920;6.238;2023-12-29T04:16:29;24.23;;;4.13;;
52322;SDS011;38263;52.920;6.238;2023-12-29T04:18:56;24.48;;;4.15;;
52322;SDS011;38263;52.920;6.238;2023-12-29T04:21:22;25.70;;;5.35;;
52322;SDS011;38263;52.920;6.238;2023-12-29T04:23:47;25.38;;;4.78;;
52322;SDS011;38263;52.920;6.238;2023-12-29T04:26:13;21.98;;;5.10;;
52322;SDS011;38263;52.920;6.238;2023-12-29T04:28:39;20.23;;;6.38;;
52322;SDS011;38263;52.920;6.238;2023-12-29T04:31:05;29.48;;;4.55;;
52322;SDS011;38263;52.920;6.238;2023-12-29T04:33:31;25.40;;;4.53;;
52322;SDS011;38263;52.920;6.238;2023-12-29T04:35:57;28.67;;;5.05;;
52322;SDS011;38263;52.920;6.238;2023-12-29T04:38:23;25.80;;;5.93;;
52322;SDS011;38263;52.920;6.238;2023-12-29T04:40:49;25.80;;;5.40;;
52322;SDS011;38263;52.920;6.238;2023-12-29T04:43:15;27.85;;;5.00;;
52322;SDS011;38263;52.920;6.238;2023-12-29T04:45:41;30.83;;;5.13;;
52322;SDS011;38263;52.920;6.238;2023-12-29T04:48:07;33.63;;;5.40;;
52322;SDS011;38263;52.920;6.238;2023-12-29T04:50:33;21.63;;;5.10;;
52322;SDS011;38263;52.920;6.238;2023-12-29T04:52:59;19.90;;;4.57;;
52322;SDS011;38263;52.920;6.238;2023-12-29T04:55:25;19.88;;;4.63;;
52322;SDS011;38263;52.920;6.238;2023-12-29T04:57:51;28.73;;;6.03;;
52322;SDS011;38263;52.920;6.238;2023-12-29T05:00:17;23.48;;;4.18;;
52322;SDS011;38263;52.920;6.238;2023-12-29T05:02:43;23.05;;;4.43;;
52322;SDS011;38263;52.920;6.238;2023-12-29T05:05:09;26.58;;;4.13;;
52322;SDS011;38263;52.920;6.238;2023-12-29T05:07:36;18.88;;;4.05;;
52322;SDS011;38263;52.920;6.238;2023-12-29T05:10:02;26.38;;;4.93;;
52322;SDS011;38263;52.920;6.238;2023-12-29T05:12:28;18.63;;;4.55;;
52322;SDS011;38263;52.920;6.238;2023-12-29T05:14:55;19.95;;;4.47;;
52322;SDS011;38263;52.920;6.238;2023-12-29T05:17:21;20.63;;;4.32;;
52322;SDS011;38263;52.920;6.238;2023-12-29T05:19:47;19.23;;;4.50;;
52322;SDS011;38263;52.920;6.238;2023-12-29T05:22:13;21.25;;;3.65;;
52322;SDS011;38263;52.920;6.238;2023-12-29T05:24:42;25.05;;;4.47;;
52322;SDS011;38263;52.920;6.238;2023-12-29T05:27:08;18.77;;;5.28;;
52322;SDS011;38263;52.920;6.238;2023-12-29T05:29:34;17.02;;;3.70;;
52322;SDS011;38263;52.920;6.238;2023-12-29T05:32:00;25.40;;;4.97;;
52322;SDS011;38263;52.920;6.238;2023-12-29T05:34:27;18.40;;;3.72;;
52322;SDS011;38263;52.920;6.238;2023-12-29T05:36:53;15.75;;;3.28;;
52322;SDS011;38263;52.920;6.238;2023-12-29T05:39:19;17.63;;;4.00;;
52322;SDS011;38263;52.920;6.238;2023-12-29T05:41:45;20.83;;;3.30;;
52322;SDS011;38263;52.920;6.238;2023-12-29T05:44:11;15.70;;;3.22;;
52322;SDS011;38263;52.920;6.238;2023-12-29T05:46:37;17.20;;;2.85;;
52322;SDS011;38263;52.920;6.238;2023-12-29T05:49:03;18.92;;;4.10;;
52322;SDS011;38263;52.920;6.238;2023-12-29T05:51:29;18.38;;;3.78;;
52322;SDS011;38263;52.920;6.238;2023-12-29T05:53:55;22.73;;;3.42;;
52322;SDS011;38263;52.920;6.238;2023-12-29T05:56:21;26.15;;;5.18;;
52322;SDS011;38263;52.920;6.238;2023-12-29T05:58:47;22.08;;;4.72;;
52322;SDS011;38263;52.920;6.238;2023-12-29T06:01:13;21.38;;;4.50;;
52322;SDS011;38263;52.920;6.238;2023-12-29T06:03:39;22.73;;;4.07;;
52322;SDS011;38263;52.920;6.238;2023-12-29T06:06:05;21.30;;;4.10;;
52322;SDS011;38263;52.920;6.238;2023-12-29T06:08:31;19.05;;;3.95;;
52322;SDS011;38263;52.920;6.238;2023-12-29T06:10:57;21.95;;;3.83;;
52322;SDS011;38263;52.920;6.238;2023-12-29T06:13:23;21.27;;;4.43;;
52322;SDS011;38263;52.920;6.238;2023-12-29T06:15:49;24.15;;;4.50;;
52322;SDS011;38263;52.920;6.238;2023-12-29T06:18:15;21.83;;;4.65;;
52322;SDS011;38263;52.920;6.238;2023-12-29T06:20:41;17.92;;;4.13;;
52322;SDS011;38263;52.920;6.238;2023-12-29T06:23:07;22.10;;;3.90;;
52322;SDS011;38263;52.920;6.238;2023-12-29T06:25:33;29.27;;;6.63;;
52322;SDS011;38263;52.920;6.238;2023-12-29T06:27:59;19.00;;;3.60;;
52322;SDS011;38263;52.920;6.238;2023-12-29T06:30:26;19.45;;;5.32;;
52322;SDS011;38263;52.920;6.238;2023-12-29T06:32:52;24.33;;;5.22;;
52322;SDS011;38263;52.920;6.238;2023-12-29T06:35:18;21.00;;;4.47;;
52322;SDS011;38263;52.920;6.238;2023-12-29T06:37:44;21.02;;;3.45;;
52322;SDS011;38263;52.920;6.238;2023-12-29T06:40:10;21.98;;;5.68;;
52322;SDS011;38263;52.920;6.238;2023-12-29T06:42:36;27.92;;;5.15;;
52322;SDS011;38263;52.920;6.238;2023-12-29T06:45:02;22.83;;;4.90;;
52322;SDS011;38263;52.920;6.238;2023-12-29T06:47:28;24.58;;;4.30;;
52322;SDS011;38263;52.920;6.238;2023-12-29T06:49:57;25.20;;;5.85;;
52322;SDS011;38263;52.920;6.238;2023-12-29T06:52:24;23.20;;;4.72;;
52322;SDS011;38263;52.920;6.238;2023-12-29T06:54:50;23.95;;;5.40;;
52322;SDS011;38263;52.920;6.238;2023-12-29T06:57:16;16.50;;;4.28;;
52322;SDS011;38263;52.920;6.238;2023-12-29T06:59:42;32.40;;;5.57;;
52322;SDS011;38263;52.920;6.238;2023-12-29T07:02:08;25.67;;;4.05;;
52322;SDS011;38263;52.920;6.238;2023-12-29T07:04:34;28.00;;;5.40;;
52322;SDS011;38263;52.920;6.238;2023-12-29T07:07:00;29.67;;;5.13;;
52322;SDS011;38263;52.920;6.238;2023-12-29T07:09:27;25.98;;;6.30;;
52322;SDS011;38263;52.920;6.238;2023-12-29T07:11:53;24.08;;;4.50;;
52322;SDS011;38263;52.920;6.238;2023-12-29T07:14:19;26.38;;;4.78;;
52322;SDS011;38263;52.920;6.238;2023-12-29T07:16:45;25.70;;;4.82;;
52322;SDS011;38263;52.920;6.238;2023-12-29T07:19:11;29.42;;;5.20;;
52322;SDS011;38263;52.920;6.238;2023-12-29T07:21:37;27.58;;;4.80;;
52322;SDS011;38263;52.920;6.238;2023-12-29T07:24:03;32.25;;;4.63;;
52322;SDS011;38263;52.920;6.238;2023-12-29T07:26:29;26.77;;;4.57;;
52322;SDS011;38263;52.920;6.238;2023-12-29T07:28:58;26.77;;;5.70;;
52322;SDS011;38263;52.920;6.238;2023-12-29T07:31:24;27.00;;;4.45;;
52322;SDS011;38263;52.920;6.238;2023-12-29T07:33:50;38.40;;;7.00;;
52322;SDS011;38263;52.920;6.238;2023-12-29T07:36:17;23.00;;;5.70;;
52322;SDS011;38263;52.920;6.238;2023-12-29T07:38:43;29.88;;;4.97;;
52322;SDS011;38263;52.920;6.238;2023-12-29T07:41:09;23.65;;;4.70;;
52322;SDS011;38263;52.920;6.238;2023-12-29T07:43:35;32.72;;;6.60;;
52322;SDS011;38263;52.920;6.238;2023-12-29T07:46:01;31.90;;;4.85;;
52322;SDS011;38263;52.920;6.238;2023-12-29T07:48:27;24.55;;;4.45;;
52322;SDS011;38263;52.920;6.238;2023-12-29T07:50:53;29.70;;;4.88;;
52322;SDS011;38263;52.920;6.238;2023-12-29T07:53:20;21.30;;;4.25;;
52322;SDS011;38263;52.920;6.238;2023-12-29T07:55:46;24.55;;;4.65;;
52322;SDS011;38263;52.920;6.238;2023-12-29T07:58:14;27.45;;;5.40;;
52322;SDS011;38263;52.920;6.238;2023-12-29T08:00:40;24.30;;;5.68;;
52322;SDS011;38263;52.920;6.238;2023-12-29T08:03:06;30.33;;;5.20;;
52322;SDS011;38263;52.920;6.238;2023-12-29T08:05:33;23.48;;;4.85;;
52322;SDS011;38263;52.920;6.238;2023-12-29T08:07:59;27.17;;;4.95;;
52322;SDS011;38263;52.920;6.238;2023-12-29T08:10:25;41.65;;;6.05;;
52322;SDS011;38263;52.920;6.238;2023-12-29T08:12:51;28.55;;;5.50;;
52322;SDS011;38263;52.920;6.238;2023-12-29T08:15:17;32.13;;;5.72;;
52322;SDS011;38263;52.920;6.238;2023-12-29T08:17:43;25.77;;;4.47;;
52322;SDS011;38263;52.920;6.238;2023-12-29T08:20:10;37.33;;;4.65;;
52322;SDS011;38263;52.920;6.238;2023-12-29T08:22:36;31.15;;;4.55;;
52322;SDS011;38263;52.920;6.238;2023-12-29T08:25:03;29.70;;;5.88;;
52322;SDS011;38263;52.920;6.238;2023-12-29T08:27:29;20.05;;;4.38;;
52322;SDS011;38263;52.920;6.238;2023-12-29T08:29:55;27.30;;;4.10;;
52322;SDS011;38263;52.920;6.238;2023-12-29T08:32:21;31.20;;;5.00;;
52322;SDS011;38263;52.920;6.238;2023-12-29T08:34:47;28.75;;;4.35;;
52322;SDS011;38263;52.920;6.238;2023-12-29T08:37:13;30.58;;;4.10;;
52322;SDS011;38263;52.920;6.238;2023-12-29T08:39:46;24.90;;;5.35;;
52322;SDS011;38263;52.920;6.238;2023-12-29T08:42:23;33.10;;;6.28;;
52322;SDS011;38263;52.920;6.238;2023-12-29T08:44:49;26.30;;;4.30;;
52322;SDS011;38263;52.920;6.238;2023-12-29T08:47:15;17.73;;;4.13;;
52322;SDS011;38263;52.920;6.238;2023-12-29T08:49:41;22.65;;;3.95;;
52322;SDS011;38263;52.920;6.238;2023-12-29T08:52:07;23.10;;;4.65;;
52322;SDS011;38263;52.920;6.238;2023-12-29T08:54:34;26.42;;;4.03;;
52322;SDS011;38263;52.920;6.238;2023-12-29T08:57:01;21.63;;;4.90;;
52322;SDS011;38263;52.920;6.238;2023-12-29T08:59:27;31.83;;;4.35;;
52322;SDS011;38263;52.920;6.238;2023-12-29T09:01:53;18.90;;;4.05;;
52322;SDS011;38263;52.920;6.238;2023-12-29T09:04:20;22.17;;;5.00;;
52322;SDS011;38263;52.920;6.238;2023-12-29T09:06:46;20.00;;;4.78;;
52322;SDS011;38263;52.920;6.238;2023-12-29T09:09:12;33.80;;;4.90;;
52322;SDS011;38263;52.920;6.238;2023-12-29T09:11:41;17.35;;;3.45;;
52322;SDS011;38263;52.920;6.238;2023-12-29T09:14:07;25.92;;;4.00;;
52322;SDS011;38263;52.920;6.238;2023-12-29T09:16:35;21.23;;;3.63;;
52322;SDS011;38263;52.920;6.238;2023-12-29T09:19:01;34.35;;;4.68;;
52322;SDS011;38263;52.920;6.238;2023-12-29T09:21:27;26.58;;;6.07;;
52322;SDS011;38263;52.920;6.238;2023-12-29T09:23:53;22.35;;;4.00;;
52322;SDS011;38263;52.920;6.238;2023-12-29T09:26:19;21.73;;;4.05;;
52322;SDS011;38263;52.920;6.238;2023-12-29T09:28:45;24.10;;;5.07;;
52322;SDS011;38263;52.920;6.238;2023-12-29T09:31:12;17.70;;;4.53;;
52322;SDS011;38263;52.920;6.238;2023-12-29T09:33:38;25.30;;;4.45;;
52322;SDS011;38263;52.920;6.238;2023-12-29T09:36:05;18.92;;;3.85;;
52322;SDS011;38263;52.920;6.238;2023-12-29T09:38:31;29.30;;;5.32;;
52322;SDS011;38263;52.920;6.238;2023-12-29T09:40:59;24.85;;;4.35;;
52322;SDS011;38263;52.920;6.238;2023-12-29T09:43:25;20.00;;;4.50;;
52322;SDS011;38263;52.920;6.238;2023-12-29T09:45:51;25.20;;;4.75;;
52322;SDS011;38263;52.920;6.238;2023-12-29T09:48:18;29.83;;;5.47;;
52322;SDS011;38263;52.920;6.238;2023-12-29T09:50:46;28.00;;;4.38;;
52322;SDS011;38263;52.920;6.238;2023-12-29T09:53:13;21.98;;;4.20;;
52322;SDS011;38263;52.920;6.238;2023-12-29T09:55:40;31.52;;;4.97;;
52322;SDS011;38263;52.920;6.238;2023-12-29T09:58:07;19.15;;;4.60;;
52322;SDS011;38263;52.920;6.238;2023-12-29T10:00:34;24.67;;;4.82;;
52322;SDS011;38263;52.920;6.238;2023-12-29T10:03:00;28.88;;;4.63;;
52322;SDS011;38263;52.920;6.238;2023-12-29T10:05:27;25.20;;;4.40;;
52322;SDS011;38263;52.920;6.238;2023-12-29T10:07:53;26.13;;;5.45;;
52322;SDS011;38263;52.920;6.238;2023-12-29T10:10:19;27.80;;;6.03;;
52322;SDS011;38263;52.920;6.238;2023-12-29T10:12:48;22.67;;;4.90;;
52322;SDS011;38263;52.920;6.238;2023-12-29T10:15:19;26.27;;;4.57;;
52322;SDS011;38263;52.920;6.238;2023-12-29T10:20:33;26.83;;;3.83;;
52322;SDS011;38263;52.920;6.238;2023-12-29T10:25:29;28.58;;;4.72;;
52322;SDS011;38263;52.920;6.238;2023-12-29T10:27:55;26.52;;;4.32;;
52322;SDS011;38263;52.920;6.238;2023-12-29T10:30:22;17.88;;;4.88;;
52322;SDS011;38263;52.920;6.238;2023-12-29T10:32:53;19.10;;;3.97;;
52322;SDS011;38263;52.920;6.238;2023-12-29T10:35:34;21.35;;;3.97;;
52322;SDS011;38263;52.920;6.238;2023-12-29T10:38:11;24.77;;;4.10;;
52322;SDS011;38263;52.920;6.238;2023-12-29T10:40:38;21.73;;;3.83;;
52322;SDS011;38263;52.920;6.238;2023-12-29T10:43:04;30.30;;;6.03;;
52322;SDS011;38263;52.920;6.238;2023-12-29T10:45:34;27.20;;;4.05;;
52322;SDS011;38263;52.920;6.238;2023-12-29T10:48:03;20.50;;;4.30;;
52322;SDS011;38263;52.920;6.238;2023-12-29T10:50:29;25.17;;;4.20;;
52322;SDS011;38263;52.920;6.238;2023-12-29T10:53:14;17.45;;;3.78;;
52322;SDS011;38263;52.920;6.238;2023-12-29T10:55:43;19.50;;;3.45;;
52322;SDS011;38263;52.920;6.238;2023-12-29T10:58:09;22.13;;;4.20;;
52322;SDS011;38263;52.920;6.238;2023-12-29T11:00:35;23.17;;;3.47;;
52322;SDS011;38263;52.920;6.238;2023-12-29T11:03:01;19.88;;;4.13;;
52322;SDS011;38263;52.920;6.238;2023-12-29T11:05:27;14.18;;;3.30;;
52322;SDS011;38263;52.920;6.238;2023-12-29T11:07:54;13.38;;;2.80;;
52322;SDS011;38263;52.920;6.238;2023-12-29T11:10:21;20.85;;;3.13;;
52322;SDS011;38263;52.920;6.238;2023-12-29T11:12:47;13.88;;;3.15;;
52322;SDS011;38263;52.920;6.238;2023-12-29T11:15:14;20.02;;;4.72;;
52322;SDS011;38263;52.920;6.238;2023-12-29T11:17:44;13.85;;;3.05;;
52322;SDS011;38263;52.920;6.238;2023-12-29T11:20:15;17.23;;;3.20;;
52322;SDS011;38263;52.920;6.238;2023-12-29T11:22:51;9.27;;;2.47;;
52322;SDS011;38263;52.920;6.238;2023-12-29T11:25:17;9.85;;;2.60;;
52322;SDS011;38263;52.920;6.238;2023-12-29T11:27:43;10.55;;;3.05;;
52322;SDS011;38263;52.920;6.238;2023-12-29T11:30:10;15.25;;;3.05;;
52322;SDS011;38263;52.920;6.238;2023-12-29T11:32:51;11.57;;;2.78;;
52322;SDS011;38263;52.920;6.238;2023-12-29T11:35:24;11.02;;;3.40;;
52322;SDS011;38263;52.920;6.238;2023-12-29T11:37:59;13.65;;;2.83;;
52322;SDS011;38263;52.920;6.238;2023-12-29T11:42:53;13.02;;;3.60;;
52322;SDS011;38263;52.920;6.238;2023-12-29T11:45:29;22.60;;;3.10;;
52322;SDS011;38263;52.920;6.238;2023-12-29T11:47:57;12.57;;;2.92;;
52322;SDS011;38263;52.920;6.238;2023-12-29T11:50:31;10.80;;;2.78;;
52322;SDS011;38263;52.920;6.238;2023-12-29T11:52:57;12.93;;;3.67;;
52322;SDS011;38263;52.920;6.238;2023-12-29T11:55:27;13.82;;;2.90;;
52322;SDS011;38263;52.920;6.238;2023-12-29T11:57:54;11.32;;;3.35;;
52322;SDS011;38263;52.920;6.238;2023-12-29T12:00:42;13.85;;;2.70;;
52322;SDS011;38263;52.920;6.238;2023-12-29T12:05:47;10.98;;;2.67;;
52322;SDS011;38263;52.920;6.238;2023-12-29T12:08:46;15.43;;;2.60;;
52322;SDS011;38263;52.920;6.238;2023-12-29T12:13:50;12.02;;;3.10;;
52322;SDS011;38263;52.920;6.238;2023-12-29T12:19:01;10.18;;;3.42;;
52322;SDS011;38263;52.920;6.238;2023-12-29T12:21:27;14.50;;;3.13;;
52322;SDS011;38263;52.920;6.238;2023-12-29T12:23:53;13.93;;;2.53;;
52322;SDS011;38263;52.920;6.238;2023-12-29T12:26:20;17.55;;;3.33;;
52322;SDS011;38263;52.920;6.238;2023-12-29T12:28:47;14.02;;;2.72;;
52322;SDS011;38263;52.920;6.238;2023-12-29T12:31:17;10.77;;;2.78;;
52322;SDS011;38263;52.920;6.238;2023-12-29T12:33:52;13.32;;;3.05;;
52322;SDS011;38263;52.920;6.238;2023-12-29T12:38:54;12.40;;;2.97;;
52322;SDS011;38263;52.920;6.238;2023-12-29T12:41:20;18.17;;;2.53;;
52322;SDS011;38263;52.920;6.238;2023-12-29T12:44:04;12.48;;;2.90;;
52322;SDS011;38263;52.920;6.238;2023-12-29T12:48:59;12.80;;;2.35;;
52322;SDS011;38263;52.920;6.238;2023-12-29T12:51:45;16.10;;;2.85;;
52322;SDS011;38263;52.920;6.238;2023-12-29T12:54:11;11.88;;;3.25;;
52322;SDS011;38263;52.920;6.238;2023-12-29T12:56:43;11.95;;;2.50;;
52322;SDS011;38263;52.920;6.238;2023-12-29T12:59:11;18.90;;;3.03;;
52322;SDS011;38263;52.920;6.238;2023-12-29T13:01:38;15.15;;;3.30;;
52322;SDS011;38263;52.920;6.238;2023-12-29T13:04:05;13.48;;;2.67;;
52322;SDS011;38263;52.920;6.238;2023-12-29T13:06:41;17.88;;;2.88;;
52322;SDS011;38263;52.920;6.238;2023-12-29T13:09:08;10.35;;;2.90;;
52322;SDS011;38263;52.920;6.238;2023-12-29T13:11:37;13.50;;;3.50;;
52322;SDS011;38263;52.920;6.238;2023-12-29T13:14:07;13.25;;;3.25;;
52322;SDS011;38263;52.920;6.238;2023-12-29T13:16:39;20.33;;;3.75;;
52322;SDS011;38263;52.920;6.238;2023-12-29T13:19:21;7.90;;;2.63;;
52322;SDS011;38263;52.920;6.238;2023-12-29T13:21:48;16.20;;;3.40;;
52322;SDS011;38263;52.920;6.238;2023-12-29T13:24:16;13.20;;;2.35;;
52322;SDS011;38263;52.920;6.238;2023-12-29T13:26:45;12.25;;;2.60;;
52322;SDS011;38263;52.920;6.238;2023-12-29T13:29:21;20.40;;;3.80;;
52322;SDS011;38263;52.920;6.238;2023-12-29T13:31:47;13.88;;;2.63;;
52322;SDS011;38263;52.920;6.238;2023-12-29T13:34:17;14.82;;;2.60;;
52322;SDS011;38263;52.920;6.238;2023-12-29T13:36:51;12.82;;;2.92;;
52322;SDS011;38263;52.920;6.238;2023-12-29T13:39:36;12.15;;;3.25;;
52322;SDS011;38263;52.920;6.238;2023-12-29T13:42:03;17.90;;;2.90;;
52322;SDS011;38263;52.920;6.238;2023-12-29T13:44:30;8.10;;;2.00;;
52322;SDS011;38263;52.920;6.238;2023-12-29T13:46:58;11.25;;;2.42;;
52322;SDS011;38263;52.920;6.238;2023-12-29T13:49:24;17.38;;;3.20;;
52322;SDS011;38263;52.920;6.238;2023-12-29T13:51:50;12.27;;;2.72;;
52322;SDS011;38263;52.920;6.238;2023-12-29T13:54:16;12.52;;;2.60;;
52322;SDS011;38263;52.920;6.238;2023-12-29T13:56:52;15.18;;;2.90;;
52322;SDS011;38263;52.920;6.238;2023-12-29T13:59:18;11.18;;;2.58;;
52322;SDS011;38263;52.920;6.238;2023-12-29T14:01:44;16.83;;;3.65;;
52322;SDS011;38263;52.920;6.238;2023-12-29T14:04:11;14.40;;;2.92;;
52322;SDS011;38263;52.920;6.238;2023-12-29T14:06:38;14.82;;;2.60;;
52322;SDS011;38263;52.920;6.238;2023-12-29T14:09:05;15.73;;;3.10;;
52322;SDS011;38263;52.920;6.238;2023-12-29T14:11:31;12.23;;;2.53;;
52322;SDS011;38263;52.920;6.238;2023-12-29T14:13:58;15.27;;;2.72;;
52322;SDS011;38263;52.920;6.238;2023-12-29T14:16:24;11.10;;;3.05;;
52322;SDS011;38263;52.920;6.238;2023-12-29T14:21:32;16.90;;;3.42;;
52322;SDS011;38263;52.920;6.238;2023-12-29T14:24:14;10.23;;;3.40;;
52322;SDS011;38263;52.920;6.238;2023-12-29T14:26:41;13.90;;;3.45;;
52322;SDS011;38263;52.920;6.238;2023-12-29T14:29:46;9.40;;;2.83;;
52322;SDS011;38263;52.920;6.238;2023-12-29T14:32:13;14.88;;;2.55;;
52322;SDS011;38263;52.920;6.238;2023-12-29T14:34:39;14.18;;;2.80;;
52322;SDS011;38263;52.920;6.238;2023-12-29T14:37:05;8.82;;;2.60;;
52322;SDS011;38263;52.920;6.238;2023-12-29T14:39:34;12.15;;;3.05;;
52322;SDS011;38263;52.920;6.238;2023-12-29T14:42:01;12.95;;;2.28;;
52322;SDS011;38263;52.920;6.238;2023-12-29T14:44:30;13.13;;;2.50;;
52322;SDS011;38263;52.920;6.238;2023-12-29T14:46:56;13.65;;;2.92;;
52322;SDS011;38263;52.920;6.238;2023-12-29T14:49:22;7.50;;;2.70;;
52322;SDS011;38263;52.920;6.238;2023-12-29T14:51:49;13.80;;;3.15;;
52322;SDS011;38263;52.920;6.238;2023-12-29T14:54:15;10.75;;;2.85;;
52322;SDS011;38263;52.920;6.238;2023-12-29T15:00:03;9.55;;;2.42;;
52322;SDS011;38263;52.920;6.238;2023-12-29T15:02:30;14.73;;;3.00;;
52322;SDS011;38263;52.920;6.238;2023-12-29T15:04:56;17.65;;;3.78;;